createdAt,value
2023-05-05T00:01:03.085Z,57.30
2023-05-05T00:03:31.392Z,58.60
2023-05-05T00:05:59.510Z,59.60
2023-05-05T00:08:28.545Z,59.00
2023-05-05T00:10:57.722Z,58.20
2023-05-05T00:13:25.970Z,58.00
2023-05-05T00:15:55.499Z,57.30
2023-05-05T00:18:23.604Z,57.50
2023-05-05T00:20:51.821Z,57.10
2023-05-05T00:23:20.544Z,59.50
2023-05-05T00:25:48.704Z,59.80
2023-05-05T00:28:16.838Z,60.20
2023-05-05T00:30:44.983Z,59.40
2023-05-05T00:33:14.460Z,59.50
2023-05-05T00:35:42.600Z,59.90
2023-05-05T00:38:10.760Z,59.90
2023-05-05T00:40:39.028Z,60.00
2023-05-05T00:43:07.737Z,61.40
2023-05-05T00:45:37.118Z,60.00
2023-05-05T00:48:05.750Z,61.10
2023-05-05T00:50:35.444Z,60.80
2023-05-05T00:53:05.001Z,61.30
2023-05-05T00:55:33.394Z,61.90
2023-05-05T00:58:02.738Z,62.30
2023-05-05T01:00:31.232Z,61.40
2023-05-05T01:02:59.468Z,63.30
2023-05-05T01:05:27.903Z,63.70
2023-05-05T01:08:11.605Z,64.50
2023-05-05T01:10:42.025Z,62.80
2023-05-05T01:13:26.932Z,64.00
2023-05-05T01:15:58.744Z,64.60
2023-05-05T01:18:30.601Z,64.00
2023-05-05T01:21:01.735Z,63.40
2023-05-05T01:23:48.853Z,62.80
2023-05-05T01:26:25.878Z,61.70
2023-05-05T01:29:04.558Z,60.00
2023-05-05T01:31:51.565Z,62.70
2023-05-05T01:34:22.297Z,62.30
2023-05-05T01:36:54.155Z,62.30
2023-05-05T01:39:22.296Z,61.40
2023-05-05T01:41:50.784Z,63.90
2023-05-05T01:44:20.056Z,64.60
2023-05-05T01:46:49.725Z,63.40
2023-05-05T01:49:17.816Z,63.40
2023-05-05T01:51:46.285Z,63.10
2023-05-05T01:54:14.430Z,63.70
2023-05-05T01:56:42.542Z,63.50
2023-05-05T01:59:10.690Z,64.00
2023-05-05T02:01:41.011Z,62.90
2023-05-05T02:04:10.910Z,64.00
2023-05-05T02:06:39.090Z,63.30
2023-05-05T02:09:07.386Z,60.80
2023-05-05T02:11:35.519Z,62.70
2023-05-05T02:14:03.659Z,62.40
2023-05-05T02:16:31.803Z,63.90
2023-05-05T02:19:00.503Z,64.80
2023-05-05T02:21:29.927Z,64.10
2023-05-05T02:23:57.998Z,64.00
2023-05-05T02:26:26.248Z,62.60
2023-05-05T02:28:56.969Z,61.10
2023-05-05T02:31:25.491Z,61.20
2023-05-05T02:33:53.609Z,61.30
2023-05-05T02:36:22.722Z,62.20
2023-05-05T02:39:03.490Z,61.00
2023-05-05T02:41:31.823Z,60.10
2023-05-05T02:44:00.011Z,62.00
2023-05-05T02:46:28.807Z,61.10
2023-05-05T02:48:56.997Z,62.70
2023-05-05T02:51:25.188Z,61.80
2023-05-05T02:53:54.646Z,61.50
2023-05-05T02:56:27.865Z,61.60
2023-05-05T02:58:58.157Z,61.00
2023-05-05T03:01:30.340Z,63.60
2023-05-05T03:04:04.183Z,61.80
2023-05-05T03:06:33.133Z,61.30
2023-05-05T03:09:07.517Z,60.70
2023-05-05T03:11:38.175Z,61.30
2023-05-05T03:14:08.871Z,61.20
2023-05-05T03:16:37.540Z,61.20
2023-05-05T03:19:05.668Z,61.80
2023-05-05T03:21:33.805Z,62.70
2023-05-05T03:24:03.404Z,62.20
2023-05-05T03:26:32.011Z,61.60
2023-05-05T03:29:00.092Z,61.10
2023-05-05T03:31:28.573Z,60.70
2023-05-05T03:33:56.791Z,61.00
2023-05-05T03:36:26.187Z,61.60
2023-05-05T03:38:56.074Z,60.80
2023-05-05T03:41:25.882Z,61.20
2023-05-05T03:43:53.965Z,60.70
2023-05-05T03:46:22.106Z,61.20
2023-05-05T03:48:50.435Z,59.80
2023-05-05T03:51:18.525Z,62.20
2023-05-05T03:53:46.761Z,61.40
2023-05-05T03:56:14.886Z,61.60
2023-05-05T03:58:44.368Z,61.40
2023-05-05T04:01:12.432Z,60.00
2023-05-05T04:03:40.780Z,61.70
2023-05-05T04:06:09.001Z,62.10
2023-05-05T04:08:37.155Z,62.80
2023-05-05T04:11:05.367Z,62.80
2023-05-05T04:13:33.533Z,62.70
2023-05-05T04:16:03.174Z,62.20
2023-05-05T04:18:31.450Z,62.80
2023-05-05T04:20:59.562Z,62.30
2023-05-05T04:23:27.664Z,62.00
2023-05-05T04:25:55.897Z,61.70
2023-05-05T04:28:23.976Z,61.50
2023-05-05T04:30:52.113Z,61.70
2023-05-05T04:33:21.543Z,62.30
2023-05-05T04:35:49.641Z,63.20
2023-05-05T04:38:19.557Z,63.40
2023-05-05T04:40:47.777Z,62.70
2023-05-05T04:43:15.934Z,62.60
2023-05-05T04:45:52.859Z,63.30
2023-05-05T04:48:22.322Z,63.50
2023-05-05T04:50:51.493Z,63.40
2023-05-05T04:53:19.763Z,63.80
2023-05-05T04:55:47.999Z,64.70
2023-05-05T04:58:16.241Z,63.90
2023-05-05T05:00:44.376Z,63.60
2023-05-05T05:03:12.660Z,61.70
2023-05-05T05:05:42.297Z,61.70
2023-05-05T05:08:10.518Z,62.80
2023-05-05T05:10:38.731Z,62.80
2023-05-05T05:13:06.986Z,63.00
2023-05-05T05:15:35.233Z,61.80
2023-05-05T05:18:03.558Z,62.50
2023-05-05T05:20:31.867Z,63.30
2023-05-05T05:23:02.179Z,62.80
2023-05-05T05:25:30.272Z,63.60
2023-05-05T05:28:08.914Z,63.10
2023-05-05T05:30:38.595Z,62.50
2023-05-05T05:33:07.303Z,63.20
2023-05-05T05:35:35.630Z,61.50
2023-05-05T05:38:05.233Z,61.40
2023-05-05T05:40:34.793Z,62.90
2023-05-05T05:43:02.966Z,61.90
2023-05-05T05:45:31.096Z,62.20
2023-05-05T05:47:59.220Z,61.70
2023-05-05T05:50:28.788Z,59.70
2023-05-05T05:52:56.892Z,59.50
2023-05-05T05:55:26.368Z,58.60
2023-05-05T05:57:54.508Z,58.40
2023-05-05T06:00:22.777Z,57.30
2023-05-05T06:02:51.669Z,57.90
2023-05-05T06:05:19.856Z,57.40
2023-05-05T06:07:47.975Z,56.80
2023-05-05T06:10:27.217Z,56.60
2023-05-05T06:12:57.850Z,56.20
2023-05-05T06:15:26.509Z,55.10
2023-05-05T06:17:54.830Z,54.90
2023-05-05T06:20:23.190Z,54.60
2023-05-05T06:22:51.458Z,55.00
2023-05-05T06:25:19.559Z,54.60
2023-05-05T06:27:47.710Z,54.50
2023-05-05T06:30:17.852Z,53.10
2023-05-05T06:32:46.036Z,53.30
2023-05-05T06:35:14.245Z,52.30
2023-05-05T06:37:42.368Z,52.00
2023-05-05T06:40:11.679Z,52.00
2023-05-05T06:42:39.777Z,52.30
2023-05-05T06:45:08.967Z,52.00
2023-05-05T06:47:38.920Z,52.30
2023-05-05T06:50:09.261Z,52.70
2023-05-05T06:52:37.846Z,53.30
2023-05-05T06:55:06.656Z,53.60
2023-05-05T06:57:34.753Z,53.00
2023-05-05T07:00:05.813Z,53.00
2023-05-05T07:02:34.268Z,53.40
2023-05-05T07:05:03.772Z,53.30
2023-05-05T07:07:32.624Z,53.10
2023-05-05T07:10:01.111Z,53.60
2023-05-05T07:12:30.665Z,53.30
2023-05-05T07:14:58.904Z,53.70
2023-05-05T07:17:27.038Z,53.90
2023-05-05T07:19:55.658Z,52.80
2023-05-05T07:22:25.165Z,53.50
2023-05-05T07:24:53.969Z,52.90
2023-05-05T07:27:22.594Z,53.40
2023-05-05T07:29:50.823Z,53.50
2023-05-05T07:32:19.126Z,52.80
2023-05-05T07:34:47.363Z,51.40
2023-05-05T07:37:15.486Z,51.10
2023-05-05T07:39:47.435Z,50.80
2023-05-05T07:42:15.612Z,50.80
2023-05-05T07:44:43.737Z,51.20
2023-05-05T07:47:12.314Z,51.40
2023-05-05T07:49:40.549Z,51.20
2023-05-05T07:52:08.685Z,50.90
2023-05-05T07:54:36.929Z,49.20
2023-05-05T07:57:06.400Z,48.80
2023-05-05T07:59:34.741Z,49.20
2023-05-05T08:02:02.775Z,50.70
2023-05-05T08:04:30.940Z,50.70
2023-05-05T08:06:59.064Z,50.30
2023-05-05T08:09:27.247Z,50.10
2023-05-05T08:11:55.355Z,50.50
2023-05-05T08:14:24.992Z,50.50
2023-05-05T08:16:53.099Z,50.50
2023-05-05T08:19:28.987Z,49.00
2023-05-05T08:21:58.838Z,47.90
2023-05-05T08:24:28.769Z,47.90
2023-05-05T08:26:57.413Z,48.20
2023-05-05T08:29:27.186Z,47.80
2023-05-05T08:31:55.557Z,46.30
2023-05-05T08:34:23.770Z,46.40
2023-05-05T08:36:52.108Z,46.80
2023-05-05T08:39:20.278Z,44.90
2023-05-05T08:41:48.503Z,44.90
2023-05-05T08:44:16.830Z,43.90
2023-05-05T08:46:46.501Z,44.10
2023-05-05T08:49:15.995Z,43.90
2023-05-05T08:51:44.549Z,42.80
2023-05-05T08:54:16.120Z,42.70
2023-05-05T08:56:44.258Z,42.90
2023-05-05T08:59:12.794Z,42.80
2023-05-05T09:01:41.380Z,42.90
2023-05-05T09:04:11.108Z,42.90
2023-05-05T09:06:39.316Z,43.00
2023-05-05T09:09:07.723Z,42.70
2023-05-05T09:11:35.823Z,42.40
2023-05-05T09:14:03.983Z,41.90
2023-05-05T09:16:32.142Z,42.50
2023-05-05T09:19:04.453Z,42.10
2023-05-05T09:21:33.954Z,42.80
2023-05-05T09:24:08.476Z,43.80
2023-05-05T09:26:37.837Z,44.30
2023-05-05T09:29:06.129Z,44.30
2023-05-05T09:31:34.944Z,43.90
2023-05-05T09:34:14.483Z,42.90
2023-05-05T09:36:44.960Z,43.70
2023-05-05T09:39:13.047Z,44.70
2023-05-05T09:41:42.194Z,44.40
2023-05-05T09:44:10.343Z,44.20
2023-05-05T09:46:38.682Z,44.50
2023-05-05T09:49:14.459Z,43.90
2023-05-05T09:51:43.819Z,44.90
2023-05-05T09:54:22.644Z,45.40
2023-05-05T09:56:51.045Z,45.20
2023-05-05T09:59:19.301Z,45.80
2023-05-05T10:01:48.817Z,45.70
2023-05-05T10:04:34.814Z,44.50
2023-05-05T10:07:04.893Z,43.30
2023-05-05T10:09:33.113Z,44.30
2023-05-05T10:12:01.854Z,45.00
2023-05-05T10:14:29.962Z,46.10
2023-05-05T10:16:58.034Z,45.00
2023-05-05T10:19:26.180Z,45.30
2023-05-05T10:21:54.987Z,44.40
2023-05-05T10:24:28.421Z,44.80
2023-05-05T10:26:57.680Z,46.20
2023-05-05T10:29:31.459Z,45.50
2023-05-05T10:32:16.259Z,45.40
2023-05-05T10:34:52.337Z,45.50
2023-05-05T10:37:20.634Z,44.40
2023-05-05T10:39:50.396Z,43.90
2023-05-05T10:42:18.557Z,43.80
2023-05-05T10:44:48.601Z,44.40
2023-05-05T10:47:17.252Z,42.90
2023-05-05T10:49:48.483Z,41.00
2023-05-05T10:52:22.211Z,41.30
2023-05-05T10:54:56.870Z,41.40
2023-05-05T10:57:26.211Z,43.10
2023-05-05T10:59:54.336Z,42.40
2023-05-05T11:02:26.496Z,42.20
2023-05-05T11:05:14.493Z,43.00
2023-05-05T11:07:42.923Z,43.00
2023-05-05T11:10:13.096Z,41.10
2023-05-05T11:13:18.896Z,42.70
2023-05-05T11:15:47.256Z,41.50
2023-05-05T11:18:36.600Z,43.60
2023-05-05T11:21:15.516Z,42.30
2023-05-05T11:23:45.076Z,42.80
2023-05-05T11:26:15.092Z,43.40
2023-05-05T11:28:57.315Z,44.10
2023-05-05T11:31:25.527Z,43.70
2023-05-05T11:33:54.156Z,43.80
2023-05-05T11:36:22.692Z,43.10
2023-05-05T11:39:09.700Z,42.40
2023-05-05T11:42:06.596Z,43.40
2023-05-05T11:44:36.714Z,42.00
2023-05-05T11:47:28.251Z,41.70
2023-05-05T11:49:56.827Z,43.40
2023-05-05T11:52:28.574Z,42.30
2023-05-05T11:55:01.745Z,40.00
2023-05-05T11:57:31.275Z,40.50
2023-05-05T12:00:03.139Z,38.60
2023-05-05T12:02:31.567Z,40.40
2023-05-05T12:05:00.200Z,41.00
2023-05-05T12:07:29.228Z,39.50
2023-05-05T12:09:57.672Z,39.40
2023-05-05T12:12:37.261Z,39.40
2023-05-05T12:15:06.458Z,38.60
2023-05-05T12:17:39.117Z,40.80
2023-05-05T12:20:08.959Z,41.90
2023-05-05T12:22:37.320Z,41.20
2023-05-05T12:25:06.735Z,39.80
2023-05-05T12:27:36.499Z,38.00
2023-05-05T12:30:15.704Z,38.60
2023-05-05T12:32:44.966Z,38.90
2023-05-05T12:35:13.307Z,39.30
2023-05-05T12:37:41.641Z,38.70
2023-05-05T12:40:17.042Z,38.50
2023-05-05T12:42:46.697Z,39.30
2023-05-05T12:45:18.209Z,39.80
2023-05-05T12:47:46.542Z,39.20
2023-05-05T12:50:14.797Z,40.40
2023-05-05T12:52:44.267Z,37.70
2023-05-05T12:55:12.528Z,38.00
2023-05-05T12:57:40.897Z,37.40
2023-05-05T13:00:17.821Z,36.40
2023-05-05T13:02:46.518Z,36.40
2023-05-05T13:05:14.745Z,37.10
2023-05-05T13:07:52.376Z,40.70
2023-05-05T13:10:20.503Z,39.50
2023-05-05T13:12:48.778Z,37.50
2023-05-05T13:15:18.379Z,37.20
2023-05-05T13:17:46.639Z,36.90
2023-05-05T13:20:14.850Z,38.00
2023-05-05T13:22:42.989Z,39.00
2023-05-05T13:25:11.390Z,39.10
2023-05-05T13:27:39.777Z,37.10
2023-05-05T13:30:09.704Z,36.40
2023-05-05T13:32:39.313Z,37.60
2023-05-05T13:35:09.240Z,36.10
2023-05-05T13:37:37.582Z,37.60
2023-05-05T13:40:06.849Z,36.40
2023-05-05T13:42:35.005Z,36.20
2023-05-05T13:45:03.604Z,36.20
2023-05-05T13:47:31.840Z,35.30
2023-05-05T13:50:02.144Z,38.20
2023-05-05T13:52:31.788Z,37.80
2023-05-05T13:55:01.427Z,37.50
2023-05-05T13:57:29.930Z,36.10
2023-05-05T13:59:58.205Z,35.60
2023-05-05T14:02:26.307Z,35.70
2023-05-05T14:04:56.768Z,37.10
2023-05-05T14:07:26.476Z,36.10
2023-05-05T14:09:54.565Z,35.50
2023-05-05T14:12:23.788Z,35.20
2023-05-05T14:14:51.915Z,35.60
2023-05-05T14:17:20.044Z,37.00
2023-05-05T14:19:48.151Z,36.70
2023-05-05T14:22:16.341Z,35.30
2023-05-05T14:24:46.172Z,36.10
2023-05-05T14:27:14.307Z,36.00
2023-05-05T14:29:42.429Z,36.20
2023-05-05T14:32:10.715Z,36.20
2023-05-05T14:34:38.944Z,35.90
2023-05-05T14:37:07.081Z,34.90
2023-05-05T14:39:35.228Z,35.10
2023-05-05T14:42:04.809Z,36.20
2023-05-05T14:44:32.934Z,35.20
2023-05-05T14:47:01.092Z,37.50
2023-05-05T14:49:29.383Z,37.40
2023-05-05T14:51:57.618Z,38.20
2023-05-05T14:54:28.749Z,38.30
2023-05-05T14:56:58.404Z,36.70
2023-05-05T14:59:28.129Z,36.50
2023-05-05T15:01:56.987Z,37.10
2023-05-05T15:04:25.457Z,38.00
2023-05-05T15:06:53.847Z,37.00
2023-05-05T15:09:22.101Z,38.30
2023-05-05T15:11:50.564Z,38.20
2023-05-05T15:14:18.848Z,36.30
2023-05-05T15:16:48.447Z,35.90
2023-05-05T15:19:16.624Z,35.60
2023-05-05T15:21:44.787Z,35.80
2023-05-05T15:24:12.956Z,35.90
2023-05-05T15:26:41.286Z,35.90
2023-05-05T15:29:10.066Z,35.50
2023-05-05T15:31:41.727Z,36.80
2023-05-05T15:34:12.035Z,35.50
2023-05-05T15:36:40.239Z,36.00
2023-05-05T15:39:08.415Z,36.30
2023-05-05T15:41:36.741Z,35.90
2023-05-05T15:44:05.071Z,36.20
2023-05-05T15:46:34.169Z,36.90
2023-05-05T15:49:02.859Z,37.40
2023-05-05T15:51:32.827Z,38.80
2023-05-05T15:54:01.091Z,39.50
2023-05-05T15:56:29.420Z,41.60
2023-05-05T15:58:59.308Z,42.70
2023-05-05T16:01:27.471Z,43.60
2023-05-05T16:03:57.658Z,44.30
2023-05-05T16:06:27.411Z,45.80
2023-05-05T16:08:58.714Z,48.00
2023-05-05T16:11:27.010Z,47.80
2023-05-05T16:13:55.269Z,49.80
2023-05-05T16:16:23.447Z,50.70
2023-05-05T16:18:52.287Z,54.50
2023-05-05T16:21:20.489Z,57.90
2023-05-05T16:23:48.642Z,58.00
2023-05-05T16:26:18.480Z,62.50
2023-05-05T16:28:51.604Z,66.10
2023-05-05T16:31:19.884Z,65.70
2023-05-05T16:33:47.986Z,65.80
2023-05-05T16:36:16.258Z,67.50
2023-05-05T16:38:45.027Z,66.00
2023-05-05T16:41:14.428Z,66.50
2023-05-05T16:43:44.973Z,66.00
2023-05-05T16:46:13.357Z,65.70
2023-05-05T16:48:42.197Z,67.00
2023-05-05T16:51:12.505Z,64.90
2023-05-05T16:53:40.857Z,64.90
2023-05-05T16:56:12.344Z,63.10
2023-05-05T16:58:41.161Z,65.10
2023-05-05T17:01:11.473Z,65.10
2023-05-05T17:03:40.488Z,63.20
2023-05-05T17:06:09.762Z,63.50
2023-05-05T17:08:38.195Z,63.00
2023-05-05T17:11:06.635Z,62.50
2023-05-05T17:13:35.255Z,62.40
2023-05-05T17:16:03.542Z,62.50
2023-05-05T17:18:33.378Z,62.30
2023-05-05T17:21:01.985Z,62.20
2023-05-05T17:23:30.287Z,61.80
2023-05-05T17:25:59.808Z,61.70
2023-05-05T17:28:29.361Z,62.10
2023-05-05T17:31:00.023Z,60.80
2023-05-05T17:33:28.988Z,64.40
2023-05-05T17:35:58.813Z,65.30
2023-05-05T17:38:27.028Z,65.20
2023-05-05T17:40:55.569Z,64.80
2023-05-05T17:43:23.665Z,65.90
2023-05-05T17:45:52.489Z,65.70
2023-05-05T17:48:20.681Z,64.40
2023-05-05T17:50:49.540Z,62.90
2023-05-05T17:53:19.406Z,62.80
2023-05-05T17:55:48.243Z,63.70
2023-05-05T17:58:16.937Z,64.00
2023-05-05T18:00:45.285Z,64.60
2023-05-05T18:03:13.736Z,65.90
2023-05-05T18:05:42.111Z,65.40
2023-05-05T18:08:10.379Z,64.80
2023-05-05T18:10:40.844Z,67.00
2023-05-05T18:13:09.038Z,67.20
2023-05-05T18:15:37.380Z,65.80
2023-05-05T18:18:06.036Z,65.70
2023-05-05T18:20:34.386Z,67.30
2023-05-05T18:23:02.964Z,68.20
2023-05-05T18:25:31.100Z,67.60
2023-05-05T18:28:01.127Z,68.10
2023-05-05T18:30:29.424Z,68.40
2023-05-05T18:32:58.110Z,68.10
2023-05-05T18:35:26.608Z,68.20
2023-05-05T18:37:55.188Z,68.60
2023-05-05T18:40:23.296Z,68.40
2023-05-05T18:42:51.935Z,68.30
2023-05-05T18:45:21.623Z,68.80
2023-05-05T18:47:51.108Z,70.30
2023-05-05T18:50:21.191Z,69.50
2023-05-05T18:52:50.536Z,68.70
2023-05-05T18:55:18.685Z,70.30
2023-05-05T18:57:46.833Z,70.10
2023-05-05T19:00:15.633Z,70.30
2023-05-05T19:02:45.079Z,70.20
2023-05-05T19:05:13.180Z,70.20
2023-05-05T19:07:41.536Z,70.00
2023-05-05T19:10:11.340Z,70.80
2023-05-05T19:12:39.451Z,71.00
2023-05-05T19:15:08.675Z,71.20
2023-05-05T19:17:36.955Z,70.40
2023-05-05T19:20:07.678Z,69.70
2023-05-05T19:22:35.941Z,70.10
2023-05-05T19:25:04.102Z,69.50
2023-05-05T19:27:33.948Z,69.30
2023-05-05T19:30:02.087Z,70.40
2023-05-05T19:32:30.224Z,70.20
2023-05-05T19:34:58.330Z,69.80
2023-05-05T19:37:28.056Z,70.20
2023-05-05T19:39:56.569Z,70.90
2023-05-05T19:42:24.736Z,70.80
2023-05-05T19:44:52.876Z,70.10
2023-05-05T19:47:21.049Z,70.20
2023-05-05T19:49:49.129Z,72.10
2023-05-05T19:52:17.323Z,71.40
2023-05-05T19:54:46.866Z,70.50
2023-05-05T19:57:15.124Z,71.30
2023-05-05T19:59:43.265Z,70.00
2023-05-05T20:02:12.248Z,69.10
2023-05-05T20:04:40.385Z,70.40
2023-05-05T20:07:08.487Z,70.30
2023-05-05T20:09:37.792Z,70.30
2023-05-05T20:12:08.207Z,70.70
2023-05-05T20:14:36.426Z,69.80
2023-05-05T20:17:04.480Z,72.00
2023-05-05T20:19:32.627Z,71.30
2023-05-05T20:22:00.775Z,72.00
2023-05-05T20:24:29.917Z,72.30
2023-05-05T20:26:58.024Z,72.30
2023-05-05T20:29:27.521Z,70.90
2023-05-05T20:31:55.825Z,70.20
2023-05-05T20:34:25.092Z,72.00
2023-05-05T20:36:54.241Z,72.30
2023-05-05T20:39:22.465Z,71.90
2023-05-05T20:41:50.578Z,71.60
2023-05-05T20:44:18.712Z,72.20
2023-05-05T20:46:48.330Z,72.10
2023-05-05T20:49:16.603Z,72.10
2023-05-05T20:51:44.732Z,72.00
2023-05-05T20:54:12.832Z,71.90
2023-05-05T20:56:41.329Z,72.20
2023-05-05T20:59:09.376Z,71.70
2023-05-05T21:01:37.549Z,70.50
2023-05-05T21:04:07.201Z,69.40
2023-05-05T21:06:35.331Z,69.40
2023-05-05T21:09:03.369Z,68.40
2023-05-05T21:11:31.792Z,68.30
2023-05-05T21:13:59.863Z,68.50
2023-05-05T21:16:27.982Z,69.70
2023-05-05T21:18:56.190Z,70.20
2023-05-05T21:21:25.728Z,68.80
2023-05-05T21:23:55.231Z,69.50
2023-05-05T21:26:23.572Z,69.50
2023-05-05T21:28:51.726Z,70.90
2023-05-05T21:31:22.389Z,71.80
2023-05-05T21:33:50.754Z,70.50
2023-05-05T21:36:19.557Z,70.50
2023-05-05T21:38:49.073Z,70.40
2023-05-05T21:41:17.310Z,70.10
2023-05-05T21:43:45.491Z,70.10
2023-05-05T21:46:13.682Z,71.00
2023-05-05T21:48:41.822Z,71.50
2023-05-05T21:51:09.957Z,72.30
2023-05-05T21:53:38.228Z,71.30
2023-05-05T21:56:07.995Z,70.40
2023-05-05T21:58:36.106Z,69.70
2023-05-05T22:01:04.295Z,69.50
2023-05-05T22:03:32.633Z,71.00
2023-05-05T22:06:00.803Z,71.70
2023-05-05T22:08:28.871Z,71.80
2023-05-05T22:10:56.947Z,71.50
2023-05-05T22:13:26.384Z,72.10
2023-05-05T22:15:54.554Z,71.50
2023-05-05T22:18:22.635Z,71.80
2023-05-05T22:20:51.430Z,70.70
2023-05-05T22:23:19.533Z,71.20
2023-05-05T22:25:47.797Z,71.40
2023-05-05T22:28:15.884Z,71.60
2023-05-05T22:30:45.438Z,70.90
2023-05-05T22:33:13.635Z,71.30
2023-05-05T22:35:41.733Z,72.30
2023-05-05T22:38:09.844Z,72.20
2023-05-05T22:40:37.929Z,71.80
2023-05-05T22:43:06.013Z,70.80
2023-05-05T22:45:34.190Z,70.80
2023-05-05T22:48:03.898Z,71.60
2023-05-05T22:50:32.071Z,71.40
2023-05-05T22:53:00.208Z,71.20
2023-05-05T22:55:28.285Z,71.20
2023-05-05T22:57:56.402Z,72.00
2023-05-05T23:00:24.735Z,71.50
2023-05-05T23:02:52.932Z,70.80
2023-05-05T23:05:22.503Z,71.00
2023-05-05T23:07:50.833Z,71.00
2023-05-05T23:10:19.016Z,71.80
2023-05-05T23:12:47.226Z,71.40
2023-05-05T23:15:15.790Z,71.50
2023-05-05T23:17:43.975Z,72.60
2023-05-05T23:20:13.301Z,71.90
2023-05-05T23:22:42.884Z,71.40
2023-05-05T23:25:11.551Z,71.90
2023-05-05T23:27:40.065Z,72.90
2023-05-05T23:30:09.638Z,73.70
2023-05-05T23:32:37.837Z,74.30
2023-05-05T23:35:06.606Z,73.10
2023-05-05T23:37:34.687Z,72.10
2023-05-05T23:40:04.458Z,71.60
2023-05-05T23:42:32.549Z,72.50
2023-05-05T23:45:00.992Z,72.70
2023-05-05T23:47:29.311Z,72.20
2023-05-05T23:49:57.401Z,71.40
2023-05-05T23:52:25.481Z,73.40
2023-05-05T23:54:53.764Z,73.40
2023-05-05T23:57:23.273Z,72.50
2023-05-05T23:59:51.377Z,72.10
